createdAt,value
2023-01-07T00:29:44.588Z,0
2023-01-07T00:30:24.795Z,0
2023-01-07T00:31:05.377Z,0
2023-01-07T00:31:45.865Z,0
2023-01-07T00:32:26.388Z,0
2023-01-07T00:33:06.832Z,0
2023-01-07T00:33:47.332Z,0
2023-01-07T00:34:27.836Z,0
2023-01-07T00:35:08.350Z,0
2023-01-07T00:35:48.830Z,0
2023-01-07T00:36:29.303Z,0
2023-01-07T00:43:14.266Z,0
2023-01-07T00:43:54.817Z,0
2023-01-07T00:44:35.319Z,0
2023-01-07T00:45:15.895Z,0
2023-01-07T00:45:56.299Z,0
2023-01-07T00:46:36.788Z,0
2023-01-07T00:47:17.257Z,0
2023-01-07T00:47:57.758Z,0
2023-01-07T00:48:38.238Z,0
2023-01-07T00:49:18.753Z,0
2023-01-07T00:49:59.261Z,0
2023-01-07T00:56:44.210Z,0
2023-01-07T00:57:24.712Z,0
2023-01-07T00:58:05.213Z,0
2023-01-07T00:58:45.728Z,0
2023-01-07T00:59:26.243Z,0
2023-01-07T01:00:06.711Z,0
2023-01-07T01:00:47.338Z,0
2023-01-07T01:01:27.777Z,0
2023-01-07T01:02:08.357Z,0
2023-01-07T01:02:48.775Z,0
2023-01-07T01:03:29.267Z,0
2023-01-07T01:10:14.224Z,0
2023-01-07T01:10:54.777Z,0
2023-01-07T01:11:35.246Z,0
2023-01-07T01:12:15.743Z,0
2023-01-07T01:12:56.252Z,0
2023-01-07T01:13:36.749Z,0
2023-01-07T01:14:17.332Z,0
2023-01-07T01:14:57.798Z,0
2023-01-07T01:15:38.291Z,0
2023-01-07T01:16:19.081Z,0
2023-01-07T01:23:44.427Z,0
2023-01-07T01:24:24.919Z,0
2023-01-07T01:25:05.403Z,0
2023-01-07T01:25:45.982Z,0
2023-01-07T01:26:26.485Z,0
2023-01-07T01:27:06.961Z,0
2023-01-07T01:27:47.464Z,0
2023-01-07T01:28:27.995Z,0
2023-01-07T01:29:08.525Z,0
2023-01-07T01:29:48.987Z,0
2023-01-07T01:37:14.490Z,0
2023-01-07T01:37:54.972Z,0
2023-01-07T01:38:35.440Z,0
2023-01-07T01:41:49.138Z,0
2023-01-07T01:42:29.655Z,0
2023-01-07T01:43:10.153Z,0
2023-01-07T01:43:50.582Z,0
2023-01-07T01:44:31.073Z,0
2023-01-07T01:45:11.572Z,0
2023-01-07T01:45:52.095Z,0
2023-01-07T01:46:32.689Z,0
2023-01-07T01:47:13.195Z,0
2023-01-07T01:47:53.689Z,0
2023-01-07T01:55:19.200Z,0
2023-01-07T01:55:59.719Z,0
2023-01-07T01:56:40.231Z,0
2023-01-07T01:57:20.711Z,0
2023-01-07T01:58:01.206Z,0
2023-01-07T01:58:41.797Z,0
2023-01-07T01:59:22.227Z,0
2023-01-07T02:00:43.300Z,0
2023-01-07T02:01:23.831Z,0
2023-01-07T02:08:08.821Z,0
2023-01-07T02:08:49.901Z,0
2023-01-07T02:09:30.436Z,0
2023-01-07T02:10:10.931Z,0
2023-01-07T02:10:51.416Z,0
2023-01-07T02:11:31.972Z,0
2023-01-07T02:12:12.438Z,0
2023-01-07T02:12:53.030Z,0
2023-01-07T02:13:33.442Z,0
2023-01-07T02:14:13.915Z,0
2023-01-07T02:20:58.989Z,0
2023-01-07T02:21:39.543Z,0
2023-01-07T02:22:20.044Z,0
2023-01-07T02:23:00.515Z,0
2023-01-07T02:23:41.000Z,0
2023-01-07T02:24:21.508Z,0
2023-01-07T02:25:02.057Z,0
2023-01-07T02:25:42.521Z,0
2023-01-07T02:26:23.046Z,0
2023-01-07T02:27:03.523Z,0
2023-01-07T02:34:29.104Z,0
2023-01-07T02:35:09.588Z,0
2023-01-07T02:35:50.096Z,0
2023-01-07T02:36:30.604Z,0
2023-01-07T02:37:11.086Z,0
2023-01-07T02:37:51.605Z,0
2023-01-07T02:38:32.129Z,0
2023-01-07T02:39:12.607Z,0
2023-01-07T02:39:53.095Z,0
2023-01-07T02:40:33.619Z,0
2023-01-07T02:41:14.075Z,0
2023-01-07T02:47:59.093Z,0
2023-01-07T02:48:39.598Z,0
2023-01-07T02:49:20.213Z,0
2023-01-07T02:50:00.613Z,0
2023-01-07T02:50:41.139Z,0
2023-01-07T02:51:21.628Z,0
2023-01-07T02:52:02.152Z,0
2023-01-07T02:52:42.743Z,0
2023-01-07T02:53:23.242Z,0
2023-01-07T02:54:03.802Z,0
2023-01-07T03:00:48.889Z,0
2023-01-07T03:01:29.454Z,0
2023-01-07T03:02:09.858Z,0
2023-01-07T03:02:50.356Z,0
2023-01-07T03:03:30.805Z,0
2023-01-07T03:04:11.420Z,0
2023-01-07T03:04:51.982Z,0
2023-01-07T03:05:32.382Z,0
2023-01-07T03:06:12.915Z,0
2023-01-07T03:06:53.400Z,0
2023-01-07T03:07:33.927Z,0
2023-01-07T03:11:53.554Z,0
2023-01-07T03:12:34.002Z,0
2023-01-07T03:13:14.532Z,0
2023-01-07T03:13:54.967Z,0
2023-01-07T03:14:35.481Z,0
2023-01-07T03:15:15.952Z,0
2023-01-07T03:15:56.494Z,0
2023-01-07T03:16:36.962Z,0
2023-01-07T03:17:17.511Z,0
2023-01-07T03:17:57.968Z,0
2023-01-07T03:18:38.496Z,0
2023-01-07T03:25:23.363Z,0
2023-01-07T03:26:03.817Z,0
2023-01-07T03:26:44.314Z,0
2023-01-07T03:27:24.855Z,0
2023-01-07T03:28:05.342Z,0
2023-01-07T03:28:45.850Z,0
2023-01-07T03:29:26.379Z,0
2023-01-07T03:30:06.848Z,0
2023-01-07T03:30:47.954Z,0
2023-01-07T03:31:28.640Z,0
2023-01-07T03:38:13.499Z,0
2023-01-07T03:38:54.006Z,0
2023-01-07T03:39:34.497Z,0
2023-01-07T03:40:15.028Z,0
2023-01-07T03:40:55.550Z,0
2023-01-07T03:41:36.022Z,0
2023-01-07T03:42:16.505Z,0
2023-01-07T03:42:57.016Z,0
2023-01-07T03:43:37.492Z,0
2023-01-07T03:44:18.007Z,0
2023-01-07T03:44:58.577Z,0
2023-01-07T03:51:03.139Z,0
2023-01-07T03:51:43.487Z,0
2023-01-07T03:52:23.991Z,0
2023-01-07T03:53:04.509Z,0
2023-01-07T03:53:44.990Z,0
2023-01-07T03:54:25.598Z,0
2023-01-07T03:55:06.051Z,0
2023-01-07T03:55:46.604Z,0
2023-01-07T03:56:27.081Z,0
2023-01-07T03:57:07.609Z,0
2023-01-07T03:57:48.142Z,0
2023-01-07T04:04:33.217Z,0
2023-01-07T04:05:13.661Z,0
2023-01-07T04:05:54.192Z,0
2023-01-07T04:06:34.860Z,0
2023-01-07T04:07:15.185Z,0
2023-01-07T04:07:55.748Z,0
2023-01-07T04:08:36.231Z,0
2023-01-07T04:09:16.741Z,0
2023-01-07T04:10:37.750Z,0
2023-01-07T04:11:18.251Z,0
2023-01-07T04:18:03.235Z,0
2023-01-07T04:18:43.775Z,0
2023-01-07T04:19:24.282Z,0
2023-01-07T04:20:04.788Z,0
2023-01-07T04:20:45.352Z,0
2023-01-07T04:21:25.842Z,0
2023-01-07T04:22:06.423Z,0
2023-01-07T04:22:46.804Z,0
2023-01-07T04:23:27.311Z,0
2023-01-07T04:24:07.791Z,0
2023-01-07T04:31:33.239Z,0
2023-01-07T04:32:54.253Z,0
2023-01-07T04:33:34.864Z,0
2023-01-07T04:34:15.247Z,0
2023-01-07T04:34:55.816Z,0
2023-01-07T04:35:36.343Z,0
2023-01-07T04:36:16.806Z,0
2023-01-07T04:36:57.383Z,0
2023-01-07T04:37:37.954Z,0
2023-01-07T04:38:18.345Z,0
2023-01-07T04:45:03.378Z,0
2023-01-07T04:45:43.879Z,0
2023-01-07T04:46:24.371Z,0
2023-01-07T04:47:04.935Z,0
2023-01-07T04:47:45.336Z,0
2023-01-07T04:48:25.845Z,0
2023-01-07T04:49:06.342Z,0
2023-01-07T04:49:46.872Z,0
2023-01-07T04:50:27.327Z,0
2023-01-07T04:51:07.810Z,0
2023-01-07T04:51:48.291Z,0
2023-01-07T04:58:33.339Z,0
2023-01-07T04:59:13.818Z,0
2023-01-07T04:59:54.299Z,0
2023-01-07T05:00:34.797Z,0
2023-01-07T05:01:15.356Z,0
2023-01-07T05:01:55.821Z,0
2023-01-07T05:02:36.256Z,0
2023-01-07T05:03:16.735Z,0
2023-01-07T05:03:57.247Z,0
2023-01-07T05:04:37.767Z,0
2023-01-07T05:05:18.272Z,0
2023-01-07T05:12:03.306Z,0
2023-01-07T05:12:43.850Z,0
2023-01-07T05:13:24.287Z,0
2023-01-07T05:14:04.816Z,0
2023-01-07T05:14:45.274Z,0
2023-01-07T05:15:25.843Z,0
2023-01-07T05:16:06.296Z,0
2023-01-07T05:16:46.859Z,0
2023-01-07T05:17:27.286Z,0
2023-01-07T05:18:07.757Z,0
2023-01-07T05:18:48.305Z,0
2023-01-07T05:25:33.234Z,0
2023-01-07T05:26:13.727Z,0
2023-01-07T05:26:54.219Z,0
2023-01-07T05:27:34.696Z,0
2023-01-07T05:28:15.196Z,0
2023-01-07T05:28:55.761Z,0
2023-01-07T05:29:36.240Z,0
2023-01-07T05:30:16.673Z,0
2023-01-07T05:30:57.763Z,0
2023-01-07T05:31:38.331Z,0
2023-01-07T05:38:23.321Z,0
2023-01-07T05:39:03.827Z,0
2023-01-07T05:39:44.439Z,0
2023-01-07T05:40:24.835Z,0
2023-01-07T05:41:05.307Z,0
2023-01-07T05:41:45.789Z,0
2023-01-07T05:42:26.300Z,0
2023-01-07T05:43:47.229Z,0
2023-01-07T05:44:27.738Z,0
2023-01-07T05:45:08.285Z,0
2023-01-07T05:51:53.288Z,0
2023-01-07T05:52:33.802Z,0
2023-01-07T06:32:22.395Z,0
2023-01-07T06:33:02.730Z,0
2023-01-07T06:33:43.196Z,0
2023-01-07T06:34:23.656Z,0
2023-01-07T06:35:04.129Z,0
2023-01-07T06:35:44.612Z,0
2023-01-07T06:36:25.156Z,0
2023-01-07T06:37:05.611Z,0
2023-01-07T06:37:46.081Z,0
2023-01-07T06:38:26.547Z,0
2023-01-07T06:39:07.068Z,0
2023-01-07T06:45:51.965Z,0
2023-01-07T06:46:33.349Z,0
2023-01-07T06:47:13.769Z,0
2023-01-07T06:47:54.414Z,0
2023-01-07T06:48:34.811Z,0
2023-01-07T06:49:15.458Z,0
2023-01-07T06:49:55.973Z,0
2023-01-07T06:50:36.483Z,0
2023-01-07T06:51:17.026Z,0
2023-01-07T06:58:42.442Z,0
2023-01-07T06:59:22.945Z,0
2023-01-07T07:00:03.417Z,0
2023-01-07T07:00:43.930Z,0
2023-01-07T07:01:24.524Z,0
2023-01-07T07:02:05.071Z,0
2023-01-07T07:02:45.588Z,0
2023-01-07T07:03:26.074Z,0
2023-01-07T07:04:47.357Z,0
2023-01-07T07:11:32.646Z,0
2023-01-07T07:12:12.916Z,0
2023-01-07T07:12:53.459Z,0
2023-01-07T07:13:33.928Z,0
2023-01-07T07:14:14.467Z,0
2023-01-07T07:14:54.959Z,0
2023-01-07T07:15:35.483Z,0
2023-01-07T07:16:15.979Z,0
2023-01-07T07:16:56.399Z,4
2023-01-07T07:17:36.898Z,4
2023-01-07T07:25:02.396Z,4
2023-01-07T07:25:42.886Z,4
2023-01-07T07:26:23.391Z,4
2023-01-07T07:27:03.918Z,4
2023-01-07T07:27:44.363Z,4
2023-01-07T07:28:24.892Z,4
2023-01-07T07:29:05.419Z,4
2023-01-07T07:29:45.899Z,8
2023-01-07T07:30:45.443Z,8
2023-01-07T07:31:06.899Z,8
2023-01-07T07:31:47.357Z,8
2023-01-07T07:37:12.399Z,16
2023-01-07T07:37:52.872Z,16
2023-01-07T07:38:33.358Z,16
2023-01-07T07:39:13.818Z,12
2023-01-07T07:39:54.305Z,12
2023-01-07T07:40:34.846Z,16
2023-01-07T07:41:15.371Z,16
2023-01-07T07:41:56.658Z,16
2023-01-07T07:43:10.116Z,16
2023-01-07T07:43:16.930Z,16
2023-01-07T07:50:02.356Z,36
2023-01-07T07:50:42.727Z,40
2023-01-07T07:51:23.198Z,40
2023-01-07T07:52:03.715Z,44
2023-01-07T07:52:44.208Z,48
2023-01-07T07:53:24.667Z,48
2023-01-07T07:54:05.443Z,52
2023-01-07T07:54:45.945Z,56
2023-01-07T07:55:26.801Z,56
2023-01-07T07:56:06.952Z,56
2023-01-07T08:02:51.954Z,104
2023-01-07T08:03:32.472Z,104
2023-01-07T08:04:12.913Z,116
2023-01-07T08:04:53.428Z,120
2023-01-07T08:05:34.802Z,124
2023-01-07T08:06:15.219Z,124
2023-01-07T08:06:55.758Z,128
2023-01-07T08:07:37.662Z,128
2023-01-07T08:14:22.212Z,156
2023-01-07T08:15:02.758Z,160
2023-01-07T08:15:43.226Z,164
2023-01-07T08:16:23.771Z,168
2023-01-07T08:17:04.218Z,172
2023-01-07T08:17:44.728Z,184
2023-01-07T08:18:25.200Z,188
2023-01-07T08:19:05.733Z,192
2023-01-07T08:19:46.216Z,212
2023-01-07T08:20:26.798Z,232
2023-01-07T08:26:32.397Z,208
2023-01-07T08:27:12.917Z,204
2023-01-07T08:27:53.342Z,208
2023-01-07T08:28:33.810Z,196
2023-01-07T08:32:12.870Z,232
2023-01-07T08:32:53.391Z,236
2023-01-07T08:33:33.921Z,236
2023-01-07T08:34:14.402Z,224
2023-01-07T08:34:54.873Z,228
2023-01-07T08:35:35.377Z,224
2023-01-07T08:36:22.824Z,232
2023-01-07T08:36:56.385Z,236
2023-01-07T08:37:36.946Z,252
2023-01-07T08:38:17.433Z,272
2023-01-07T08:38:57.977Z,296
2023-01-07T08:45:02.672Z,452
2023-01-07T08:45:43.223Z,464
2023-01-07T08:46:23.782Z,480
2023-01-07T08:47:04.274Z,508
2023-01-07T08:47:45.859Z,540
2023-01-07T08:48:25.386Z,560
2023-01-07T08:49:05.915Z,560
2023-01-07T08:49:46.412Z,572
2023-01-07T08:50:26.952Z,580
2023-01-07T08:51:07.549Z,588
2023-01-07T08:57:12.914Z,688
2023-01-07T08:57:53.439Z,672
2023-01-07T08:58:33.944Z,672
2023-01-07T08:59:14.496Z,724
2023-01-07T08:59:55.043Z,800
2023-01-07T09:00:35.613Z,800
2023-01-07T09:01:16.261Z,804
2023-01-07T09:01:56.678Z,812
2023-01-07T09:02:37.107Z,824
2023-01-07T09:03:17.550Z,816
2023-01-07T09:10:02.615Z,808
2023-01-07T09:10:43.124Z,820
2023-01-07T09:11:23.682Z,824
2023-01-07T09:12:04.175Z,836
2023-01-07T09:12:44.697Z,840
2023-01-07T09:13:25.200Z,844
2023-01-07T09:14:05.737Z,852
2023-01-07T09:14:46.288Z,848
2023-01-07T09:15:26.817Z,844
2023-01-07T09:16:07.468Z,840
2023-01-07T09:16:47.863Z,840
2023-01-07T09:22:52.642Z,888
2023-01-07T09:23:33.073Z,876
2023-01-07T09:24:13.557Z,860
2023-01-07T09:24:54.609Z,864
2023-01-07T09:25:35.119Z,884
2023-01-07T09:26:15.649Z,900
2023-01-07T09:26:56.263Z,900
2023-01-07T09:27:36.782Z,904
2023-01-07T09:28:17.367Z,896
2023-01-07T09:28:57.815Z,876
2023-01-07T09:35:42.886Z,844
2023-01-07T09:36:23.374Z,856
2023-01-07T09:37:03.907Z,876
2023-01-07T09:37:44.437Z,884
2023-01-07T09:39:05.519Z,900
2023-01-07T09:39:46.059Z,924
2023-01-07T09:40:26.516Z,932
2023-01-07T09:41:47.658Z,940
2023-01-07T09:48:32.695Z,960
2023-01-07T09:49:13.197Z,960
2023-01-07T09:49:53.705Z,956
2023-01-07T09:50:34.239Z,960
2023-01-07T09:51:14.702Z,948
2023-01-07T09:51:55.197Z,956
2023-01-07T09:52:35.735Z,964
2023-01-07T09:53:16.285Z,968
2023-01-07T09:53:56.895Z,972
2023-01-07T09:54:37.268Z,972
2023-01-07T09:55:17.821Z,956
2023-01-07T10:01:22.653Z,852
2023-01-07T10:02:03.116Z,916
2023-01-07T10:02:43.683Z,920
2023-01-07T10:03:24.149Z,920
2023-01-07T10:04:04.675Z,916
2023-01-07T10:04:45.141Z,908
2023-01-07T10:05:25.661Z,904
2023-01-07T10:06:06.122Z,820
2023-01-07T10:06:46.656Z,804
2023-01-07T10:07:27.158Z,892
2023-01-07T10:08:29.561Z,856
2023-01-07T10:14:52.768Z,916
2023-01-07T10:15:33.250Z,884
2023-01-07T10:16:13.799Z,900
2023-01-07T10:16:54.253Z,852
2023-01-07T10:17:34.756Z,880
2023-01-07T10:18:15.319Z,880
2023-01-07T10:18:55.797Z,856
2023-01-07T10:19:36.295Z,912
2023-01-07T10:20:16.795Z,864
2023-01-07T10:20:57.317Z,796
2023-01-07T10:27:42.693Z,748
2023-01-07T10:28:23.183Z,768
2023-01-07T10:29:03.678Z,740
2023-01-07T10:29:44.197Z,696
2023-01-07T10:30:24.701Z,708
2023-01-07T10:31:05.252Z,732
2023-01-07T10:31:45.849Z,724
2023-01-07T10:32:26.286Z,712
2023-01-07T10:33:06.787Z,688
2023-01-07T10:33:47.305Z,668
2023-01-07T10:34:27.901Z,680
2023-01-07T10:40:32.571Z,608
2023-01-07T10:41:12.972Z,592
2023-01-07T10:41:53.432Z,584
2023-01-07T10:42:33.971Z,648
2023-01-07T10:43:14.490Z,628
2023-01-07T10:43:55.000Z,608
2023-01-07T10:44:35.473Z,556
2023-01-07T10:45:16.038Z,540
2023-01-07T10:45:57.305Z,548
2023-01-07T10:46:37.809Z,604
2023-01-07T10:53:22.884Z,760
2023-01-07T10:54:03.369Z,780
2023-01-07T10:54:43.881Z,748
2023-01-07T10:55:24.536Z,744
2023-01-07T10:56:05.198Z,720
2023-01-07T10:56:45.709Z,736
2023-01-07T10:57:26.235Z,708
2023-01-07T10:58:06.896Z,764
2023-01-07T10:58:47.425Z,708
2023-01-07T10:59:27.788Z,652
2023-01-07T11:05:32.666Z,740
2023-01-07T11:06:13.188Z,724
2023-01-07T11:06:53.674Z,776
2023-01-07T11:07:34.147Z,784
2023-01-07T11:08:14.695Z,720
2023-01-07T11:08:55.169Z,636
2023-01-07T11:09:35.690Z,672
2023-01-07T11:10:16.188Z,684
2023-01-07T11:10:58.653Z,688
2023-01-07T11:11:37.289Z,676
2023-01-07T11:12:17.697Z,640
2023-01-07T11:20:00.212Z,612
2023-01-07T11:20:40.192Z,616
2023-01-07T11:21:42.254Z,592
2023-01-07T11:22:01.210Z,588
2023-01-07T11:22:41.743Z,572
2023-01-07T11:23:22.279Z,536
2023-01-07T11:24:02.762Z,548
2023-01-07T11:24:43.232Z,548
2023-01-07T11:25:23.715Z,544
2023-01-07T11:26:04.259Z,524
2023-01-07T11:34:01.036Z,604
2023-01-07T11:34:10.378Z,660
2023-01-07T11:34:50.909Z,664
2023-01-07T11:35:31.422Z,700
2023-01-07T11:36:11.922Z,812
2023-01-07T11:36:52.401Z,792
2023-01-07T11:37:32.905Z,912
2023-01-07T11:38:13.459Z,852
2023-01-07T11:38:53.952Z,920
2023-01-07T11:39:34.439Z,976
2023-01-07T11:46:59.914Z,972
2023-01-07T11:47:40.401Z,936
2023-01-07T11:48:20.925Z,920
2023-01-07T11:49:01.448Z,948
2023-01-07T11:49:41.974Z,964
2023-01-07T11:50:22.461Z,976
2023-01-07T11:51:02.981Z,980
2023-01-07T11:51:43.479Z,968
2023-01-07T11:52:24.027Z,872
2023-01-07T11:53:04.488Z,788
2023-01-07T12:32:35.172Z,800
2023-01-07T12:33:15.500Z,800
2023-01-07T12:33:55.952Z,796
2023-01-07T12:34:36.437Z,600
2023-01-07T12:35:16.939Z,588
2023-01-07T12:35:57.440Z,588
2023-01-07T12:36:37.901Z,596
2023-01-07T12:37:18.394Z,608
2023-01-07T12:37:58.915Z,656
2023-01-07T12:38:40.183Z,652
2023-01-07T12:44:45.231Z,552
2023-01-07T12:45:25.753Z,552
2023-01-07T12:46:06.253Z,700
2023-01-07T12:46:46.733Z,580
2023-01-07T12:47:30.406Z,532
2023-01-07T12:48:07.821Z,528
2023-01-07T12:48:48.221Z,588
2023-01-07T12:49:28.826Z,560
2023-01-07T12:50:09.281Z,556
2023-01-07T12:50:49.798Z,532
2023-01-07T12:57:35.134Z,532
2023-01-07T12:58:15.646Z,524
2023-01-07T12:58:56.129Z,568
2023-01-07T12:59:45.516Z,636
2023-01-07T13:00:17.108Z,556
2023-01-07T13:00:57.644Z,536
2023-01-07T13:01:38.267Z,520
2023-01-07T13:02:18.663Z,520
2023-01-07T13:02:59.069Z,528
2023-01-07T13:03:39.684Z,524
2023-01-07T13:12:02.470Z,524
2023-01-07T13:12:43.355Z,616
2023-01-07T13:13:23.413Z,592
2023-01-07T13:14:03.916Z,640
2023-01-07T13:14:44.428Z,688
2023-01-07T13:15:24.922Z,704
2023-01-07T13:16:05.468Z,628
2023-01-07T13:16:45.933Z,588
2023-01-07T13:17:26.489Z,684
2023-01-07T13:18:06.947Z,608
2023-01-07T13:18:47.469Z,680
2023-01-07T13:25:32.553Z,596
2023-01-07T13:26:13.137Z,576
2023-01-07T13:26:53.564Z,576
2023-01-07T13:27:34.021Z,580
2023-01-07T13:28:14.520Z,552
2023-01-07T13:28:55.527Z,552
2023-01-07T13:31:54.942Z,504
2023-01-07T13:32:35.807Z,544
2023-01-07T13:33:16.291Z,552
2023-01-07T13:33:56.933Z,556
2023-01-07T13:34:38.310Z,540
2023-01-07T13:35:18.300Z,524
2023-01-07T13:35:58.778Z,568
2023-01-07T13:36:39.284Z,584
2023-01-07T13:37:20.846Z,596
2023-01-07T13:42:04.570Z,604
2023-01-07T13:42:45.113Z,624
2023-01-07T13:43:25.623Z,624
2023-01-07T13:44:06.097Z,608
2023-01-07T13:44:46.627Z,596
2023-01-07T13:45:27.193Z,588
2023-01-07T13:46:07.725Z,580
2023-01-07T13:46:48.167Z,580
2023-01-07T13:47:29.070Z,588
2023-01-07T13:48:09.571Z,588
2023-01-07T13:54:14.649Z,552
2023-01-07T13:54:55.140Z,552
2023-01-07T13:55:35.667Z,556
2023-01-07T13:56:16.170Z,560
2023-01-07T13:56:56.686Z,564
2023-01-07T13:57:37.179Z,560
2023-01-07T13:58:17.757Z,556
2023-01-07T13:58:58.945Z,556
2023-01-07T13:59:39.338Z,552
2023-01-07T14:00:22.206Z,548
2023-01-07T14:05:44.808Z,568
2023-01-07T14:06:25.391Z,568
2023-01-07T14:07:05.914Z,564
2023-01-07T14:07:46.412Z,564
2023-01-07T14:08:26.938Z,568
2023-01-07T14:09:09.098Z,568
2023-01-07T14:09:49.587Z,568
2023-01-07T14:15:54.786Z,540
2023-01-07T14:16:35.285Z,532
2023-01-07T14:17:15.757Z,528
2023-01-07T14:17:56.492Z,532
2023-01-07T14:18:36.803Z,524
2023-01-07T14:19:17.361Z,524
2023-01-07T14:19:57.833Z,520
2023-01-07T14:20:38.474Z,516
2023-01-07T14:21:18.889Z,512
2023-01-07T14:21:59.383Z,504
2023-01-07T14:22:39.872Z,500
2023-01-07T14:28:04.732Z,476
2023-01-07T14:28:45.226Z,476
2023-01-07T14:29:26.815Z,472
2023-01-07T14:30:16.226Z,468
2023-01-07T14:30:47.596Z,464
2023-01-07T14:31:28.123Z,468
2023-01-07T14:32:08.548Z,468
2023-01-07T14:32:49.103Z,464
2023-01-07T14:33:29.595Z,460
2023-01-07T14:39:35.037Z,424
2023-01-07T14:40:15.546Z,416
2023-01-07T14:40:56.110Z,412
2023-01-07T14:41:36.605Z,416
2023-01-07T14:42:17.159Z,416
2023-01-07T14:42:58.140Z,412
2023-01-07T14:43:38.618Z,412
2023-01-07T14:44:19.135Z,404
2023-01-07T14:44:59.616Z,396
2023-01-07T14:51:44.795Z,376
2023-01-07T14:52:25.190Z,364
2023-01-07T14:53:05.692Z,360
2023-01-07T14:53:46.383Z,348
2023-01-07T14:54:26.938Z,344
2023-01-07T14:55:07.399Z,344
2023-01-07T14:55:47.935Z,336
2023-01-07T14:56:28.405Z,332
2023-01-07T14:57:08.918Z,328
2023-01-07T14:57:49.447Z,324
2023-01-07T14:58:29.909Z,316
2023-01-07T15:05:15.016Z,244
2023-01-07T15:05:55.559Z,240
2023-01-07T15:06:36.011Z,232
2023-01-07T15:07:16.650Z,228
2023-01-07T15:07:57.066Z,220
2023-01-07T15:08:37.494Z,212
2023-01-07T15:09:17.984Z,208
2023-01-07T15:09:58.492Z,204
2023-01-07T15:10:39.003Z,200
2023-01-07T15:11:19.539Z,204
2023-01-07T15:17:25.745Z,144
2023-01-07T15:18:07.161Z,136
2023-01-07T15:20:20.159Z,124
2023-01-07T15:21:00.627Z,120
2023-01-07T15:21:41.138Z,116
2023-01-07T15:22:21.720Z,116
2023-01-07T15:23:02.096Z,108
2023-01-07T15:23:42.621Z,104
2023-01-07T15:24:23.119Z,104
2023-01-07T15:25:03.609Z,96
2023-01-07T15:25:44.126Z,96
2023-01-07T15:26:24.606Z,92
2023-01-07T15:33:50.260Z,60
2023-01-07T15:34:30.695Z,60
2023-01-07T15:35:11.188Z,52
2023-01-07T15:35:51.615Z,52
2023-01-07T15:36:32.095Z,52
2023-01-07T15:37:12.578Z,48
2023-01-07T15:37:53.184Z,48
2023-01-07T15:38:33.574Z,44
2023-01-07T15:39:14.085Z,44
2023-01-07T15:39:54.614Z,40
2023-01-07T15:47:20.246Z,20
2023-01-07T15:48:00.739Z,20
2023-01-07T15:48:41.316Z,16
2023-01-07T15:49:21.813Z,16
2023-01-07T15:50:02.397Z,16
2023-01-07T15:50:42.788Z,16
2023-01-07T15:51:23.292Z,12
2023-01-07T15:52:03.784Z,12
2023-01-07T15:52:44.296Z,12
2023-01-07T15:53:24.936Z,12
2023-01-07T16:00:09.911Z,4
2023-01-07T16:00:50.486Z,4
2023-01-07T16:01:31.002Z,4
2023-01-07T16:02:12.048Z,4
2023-01-07T16:02:51.866Z,0
2023-01-07T16:03:32.396Z,4
2023-01-07T16:04:14.933Z,4
2023-01-07T16:04:53.541Z,4
2023-01-07T16:05:33.922Z,0
2023-01-07T16:06:14.424Z,0
2023-01-07T16:06:54.975Z,0
2023-01-07T16:13:40.047Z,0
2023-01-07T16:14:20.540Z,0
2023-01-07T16:15:02.505Z,0
2023-01-07T16:15:41.538Z,0
2023-01-07T16:16:22.193Z,0
2023-01-07T16:17:02.564Z,0
2023-01-07T16:17:43.076Z,0
2023-01-07T16:18:23.561Z,0
2023-01-07T16:19:04.079Z,0
2023-01-07T16:19:44.600Z,0
2023-01-07T16:20:25.066Z,0
2023-01-07T16:27:10.128Z,0
2023-01-07T16:27:50.641Z,0
2023-01-07T16:28:31.144Z,0
2023-01-07T16:29:11.703Z,0
2023-01-07T16:29:52.134Z,0
2023-01-07T16:30:32.696Z,0
2023-01-07T16:31:13.188Z,0
2023-01-07T16:31:53.615Z,0
2023-01-07T16:32:34.089Z,0
2023-01-07T16:33:14.604Z,0
2023-01-07T16:33:55.119Z,0
2023-01-07T16:40:40.091Z,0
2023-01-07T16:41:20.603Z,0
2023-01-07T16:42:01.092Z,0
2023-01-07T16:42:41.576Z,0
2023-01-07T16:43:22.066Z,0
2023-01-07T16:44:02.612Z,0
2023-01-07T16:44:43.157Z,0
2023-01-07T16:45:23.649Z,0
2023-01-07T16:46:04.206Z,0
2023-01-07T16:46:44.763Z,0
2023-01-07T16:53:30.114Z,0
2023-01-07T16:54:10.609Z,0
2023-01-07T16:54:51.104Z,0
2023-01-07T16:55:31.713Z,0
2023-01-07T16:56:12.151Z,0
2023-01-07T16:56:52.651Z,0
2023-01-07T16:57:33.176Z,0
2023-01-07T16:58:13.748Z,0
2023-01-07T16:58:54.286Z,0
2023-01-07T16:59:34.700Z,0
2023-01-07T17:06:19.860Z,0
2023-01-07T17:07:00.532Z,0
2023-01-07T17:07:41.076Z,0
2023-01-07T17:08:21.556Z,0
2023-01-07T17:09:02.083Z,0
2023-01-07T17:09:42.570Z,0
2023-01-07T17:10:23.060Z,0
2023-01-07T17:11:03.677Z,0
2023-01-07T17:11:44.090Z,0
2023-01-07T17:12:24.606Z,0
2023-01-07T17:13:05.105Z,0
2023-01-07T17:22:08.202Z,0
2023-01-07T17:22:48.658Z,0
2023-01-07T17:23:29.178Z,0
2023-01-07T17:24:09.669Z,0
2023-01-07T17:24:50.135Z,0
2023-01-07T17:25:30.615Z,0
2023-01-07T17:26:11.212Z,0
2023-01-07T17:27:32.095Z,0
2023-01-07T17:28:13.394Z,0
2023-01-07T17:34:58.255Z,0
2023-01-07T17:35:38.767Z,0
2023-01-07T17:36:19.319Z,0
2023-01-07T17:36:59.775Z,0
2023-01-07T17:37:40.243Z,0
2023-01-07T17:38:20.767Z,0
2023-01-07T17:39:01.295Z,0
2023-01-07T17:39:41.813Z,0
2023-01-07T17:40:22.296Z,0
2023-01-07T17:41:02.837Z,0
2023-01-07T17:47:48.041Z,0
2023-01-07T17:48:28.536Z,0
2023-01-07T17:49:09.012Z,0
2023-01-07T17:49:49.805Z,0
2023-01-07T17:50:30.291Z,0
2023-01-07T17:51:10.784Z,0
2023-01-07T17:51:53.234Z,0
2023-01-07T17:52:31.787Z,0
2023-01-07T17:53:12.293Z,0
2023-01-07T17:53:52.806Z,0
2023-01-07T18:34:15.834Z,0
2023-01-07T18:34:56.219Z,0
2023-01-07T18:35:36.744Z,0
2023-01-07T18:36:17.221Z,0
2023-01-07T18:36:57.735Z,0
2023-01-07T18:37:38.207Z,0
2023-01-07T18:38:18.731Z,0
2023-01-07T18:38:59.213Z,0
2023-01-07T18:39:39.711Z,0
2023-01-07T18:40:20.202Z,0
2023-01-07T18:41:00.699Z,0
2023-01-07T18:47:45.651Z,0
2023-01-07T18:48:26.218Z,0
2023-01-07T18:49:06.722Z,0
2023-01-07T18:49:47.354Z,0
2023-01-07T18:50:27.728Z,0
2023-01-07T18:51:08.211Z,0
2023-01-07T18:51:48.704Z,0
2023-01-07T18:52:29.175Z,0
2023-01-07T18:53:09.669Z,0
2023-01-07T18:53:50.142Z,0
2023-01-07T18:54:30.638Z,0
2023-01-07T19:01:15.846Z,0
2023-01-07T19:01:56.399Z,0
2023-01-07T19:02:36.690Z,0
2023-01-07T19:03:17.215Z,0
2023-01-07T19:03:57.772Z,0
2023-01-07T19:04:38.195Z,0
2023-01-07T19:05:18.799Z,0
2023-01-07T19:05:59.172Z,0
2023-01-07T19:06:39.674Z,0
2023-01-07T19:07:20.181Z,0
2023-01-07T19:08:00.675Z,0
2023-01-07T19:14:45.797Z,0
2023-01-07T19:15:26.265Z,0
2023-01-07T19:16:06.780Z,0
2023-01-07T19:16:47.235Z,0
2023-01-07T19:17:27.724Z,0
2023-01-07T19:18:08.212Z,0
2023-01-07T19:18:48.762Z,0
2023-01-07T19:19:34.238Z,0
2023-01-07T19:20:09.766Z,0
2023-01-07T19:20:50.380Z,0
2023-01-07T19:21:30.751Z,0
2023-01-07T19:28:15.690Z,0
2023-01-07T19:28:56.251Z,0
2023-01-07T19:29:36.790Z,0
2023-01-07T19:30:17.335Z,0
2023-01-07T19:30:57.825Z,0
2023-01-07T19:31:38.373Z,0
2023-01-07T19:32:18.823Z,0
2023-01-07T19:32:59.324Z,0
2023-01-07T19:33:39.825Z,0
2023-01-07T19:34:20.330Z,0
2023-01-07T19:41:45.842Z,0
2023-01-07T19:42:26.345Z,0
2023-01-07T19:43:07.022Z,0
2023-01-07T19:43:47.543Z,0
2023-01-07T19:44:28.011Z,0
2023-01-07T19:45:08.497Z,0
2023-01-07T19:45:49.105Z,0
2023-01-07T19:46:29.521Z,0
2023-01-07T19:47:10.032Z,0
2023-01-07T19:47:50.474Z,0
2023-01-07T19:51:29.693Z,0
2023-01-07T19:52:10.141Z,0
2023-01-07T19:52:50.552Z,0
2023-01-07T19:53:31.079Z,0
2023-01-07T19:54:11.543Z,0
2023-01-07T19:54:52.014Z,0
2023-01-07T19:55:32.499Z,0
2023-01-07T19:56:13.988Z,0
2023-01-07T19:56:54.537Z,0
2023-01-07T20:03:39.538Z,0
2023-01-07T20:04:20.056Z,0
2023-01-07T20:05:00.564Z,0
2023-01-07T20:05:41.046Z,0
2023-01-07T20:07:02.173Z,0
2023-01-07T20:07:42.590Z,0
2023-01-07T20:08:23.097Z,0
2023-01-07T20:09:03.589Z,0
2023-01-07T20:09:44.079Z,0
2023-01-07T20:10:24.615Z,0
2023-01-07T20:17:09.785Z,0
2023-01-07T20:17:50.209Z,0
2023-01-07T20:18:30.714Z,0
2023-01-07T20:19:11.293Z,0
2023-01-07T20:19:51.727Z,0
2023-01-07T20:21:12.761Z,0
2023-01-07T20:21:53.267Z,0
2023-01-07T20:22:34.123Z,0
2023-01-07T20:23:14.305Z,0
2023-01-07T20:30:39.764Z,0